createdAt,value
2018-05-23T00:02:56.997Z,0.0
2018-05-23T00:13:11.167Z,0.0
2018-05-23T00:23:56.548Z,0.0
2018-05-23T00:34:10.086Z,0.0
2018-05-23T00:44:24.607Z,0.0
2018-05-23T00:54:38.511Z,0.0
2018-05-23T01:04:53.750Z,0.0
2018-05-23T01:15:05.282Z,0.0
2018-05-23T01:25:50.676Z,0.0
2018-05-23T01:36:06.426Z,0.0
2018-05-23T01:46:20.340Z,0.0
2018-05-23T01:57:05.641Z,0.0
2018-05-23T02:08:58.671Z,0.0
2018-05-23T02:19:12.021Z,0.0
2018-05-23T02:29:26.181Z,0.0
2018-05-23T02:40:11.935Z,0.0
2018-05-23T02:50:57.554Z,0.0
2018-05-23T03:01:49.277Z,4.0
2018-05-23T03:12:03.962Z,8.0
2018-05-23T03:22:18.561Z,24.0
2018-05-23T03:33:24.761Z,52.0
2018-05-23T03:44:10.870Z,88.0
2018-05-23T03:54:56.270Z,144.0
2018-05-23T04:05:41.987Z,324.0
2018-05-23T04:15:56.645Z,524.0
2018-05-23T04:26:42.354Z,708.0
2018-05-23T04:36:56.570Z,908.0
2018-05-23T04:47:42.168Z,1136.0
2018-05-23T04:57:56.749Z,1616.0
2018-05-23T05:08:42.452Z,2056.0
2018-05-23T05:19:32.344Z,2388.0
2018-05-23T05:29:49.929Z,2492.0
2018-05-23T05:40:37.652Z,2776.0
2018-05-23T05:50:54.995Z,3248.0
2018-05-23T06:01:10.279Z,3372.0
2018-05-23T06:11:25.145Z,3500.0
2018-05-23T06:21:43.807Z,4196.0
2018-05-23T06:31:58.486Z,4448.0
2018-05-23T06:42:12.733Z,5200.0
2018-05-23T06:53:31.152Z,6132.0
2018-05-23T07:04:30.995Z,7440.0
2018-05-23T07:26:50.935Z,9084.0
2018-05-23T07:47:31.717Z,10836.0
2018-05-23T07:57:46.359Z,11004.0
2018-05-23T08:08:00.567Z,12524.0
2018-05-23T08:18:46.073Z,13504.0
2018-05-23T08:29:41.162Z,15136.0
2018-05-23T08:40:27.323Z,15936.0
2018-05-23T08:50:41.763Z,14528.0
2018-05-23T09:00:58.624Z,14464.0
2018-05-23T09:11:50.095Z,17184.0
2018-05-23T09:22:05.808Z,23008.0
2018-05-23T09:32:24.576Z,28384.0
2018-05-23T09:42:38.714Z,25856.0
2018-05-23T09:53:08.218Z,23712.0
2018-05-23T10:03:22.154Z,26240.0
2018-05-23T10:13:36.724Z,34912.0
2018-05-23T10:24:22.189Z,35520.0
2018-05-23T10:45:29.230Z,20736.0
2018-05-23T11:06:55.395Z,30304.0
2018-05-23T11:17:40.924Z,33248.0
2018-05-23T11:39:05.933Z,42912.0
2018-05-23T12:00:25.398Z,52192.0
2018-05-23T12:22:11.181Z,24192.0
2018-05-23T12:33:03.376Z,22560.0
2018-05-23T12:44:23.648Z,30816.0
2018-05-23T12:54:37.713Z,27456.0
2018-05-23T13:17:30.092Z,21408.0
2018-05-23T13:29:00.157Z,17312.0
2018-05-23T13:40:16.985Z,16576.0
2018-05-23T13:51:18.958Z,19168.0
2018-05-23T14:02:25.481Z,15424.0
2018-05-23T14:13:08.505Z,16320.0
2018-05-23T14:25:07.767Z,18688.0
2018-05-23T14:36:10.426Z,18816.0
2018-05-23T14:48:51.063Z,19968.0
2018-05-23T14:59:55.511Z,13316.0
2018-05-23T15:31:58.427Z,9644.0
2018-05-23T15:42:12.353Z,8276.0
2018-05-23T15:54:34.404Z,7620.0
2018-05-23T16:05:33.772Z,6868.0
2018-05-23T16:16:41.658Z,6652.0
2018-05-23T16:26:57.687Z,6260.0
2018-05-23T16:37:12.062Z,6052.0
2018-05-23T16:48:47.327Z,5828.0
2018-05-23T16:59:33.368Z,5468.0
2018-05-23T17:10:54.434Z,5212.0
2018-05-23T17:32:15.336Z,4100.0
2018-05-23T17:43:05.903Z,3628.0
2018-05-23T17:54:01.380Z,3192.0
2018-05-23T18:04:41.649Z,2832.0
2018-05-23T18:26:01.106Z,2000.0
2018-05-23T19:36:11.952Z,112.0
2018-05-23T19:46:48.744Z,36.0
2018-05-23T20:35:09.163Z,0.0
2018-05-23T20:45:23.697Z,0.0
2018-05-23T20:55:37.985Z,0.0
2018-05-23T21:05:52.370Z,0.0
2018-05-23T21:16:40.700Z,0.0
2018-05-23T21:26:54.460Z,0.0
2018-05-23T21:37:06.868Z,0.0
2018-05-23T21:47:52.206Z,0.0
2018-05-23T21:58:03.715Z,0.0
2018-05-23T22:08:17.906Z,0.0
2018-05-23T22:19:03.569Z,0.0
2018-05-23T22:29:17.752Z,0.0
2018-05-23T22:39:31.992Z,0.0
2018-05-23T22:49:46.243Z,0.0
2018-05-23T23:00:00.460Z,0.0
2018-05-23T23:10:11.789Z,0.0
2018-05-23T23:20:25.960Z,0.0
2018-05-23T23:30:40.426Z,0.0
2018-05-23T23:41:26.107Z,0.0
2018-05-23T23:51:42.617Z,0.0
